createdAt,value
2022-08-30T00:02:21.176Z,12.99
2022-08-30T00:04:48.250Z,12.90
2022-08-30T00:07:16.599Z,12.91
2022-08-30T00:09:43.338Z,12.86
2022-08-30T00:12:10.180Z,12.86
2022-08-30T00:14:37.715Z,12.83
2022-08-30T00:17:04.323Z,12.87
2022-08-30T00:19:30.888Z,12.89
2022-08-30T00:21:57.628Z,12.92
2022-08-30T00:24:24.139Z,12.83
2022-08-30T00:26:50.662Z,12.76
2022-08-30T00:29:17.218Z,12.75
2022-08-30T00:31:43.778Z,12.83
2022-08-30T00:34:10.324Z,12.86
2022-08-30T00:36:37.419Z,12.82
2022-08-30T00:39:04.235Z,12.80
2022-08-30T00:41:30.819Z,12.77
2022-08-30T00:43:57.683Z,12.76
2022-08-30T00:46:24.975Z,12.79
2022-08-30T00:48:53.224Z,12.81
2022-08-30T00:51:21.599Z,12.79
2022-08-30T00:53:56.097Z,12.82
2022-08-30T00:56:25.337Z,12.84
2022-08-30T00:58:55.781Z,12.88
2022-08-30T01:01:23.227Z,12.93
2022-08-30T01:03:50.114Z,12.97
2022-08-30T01:06:17.757Z,12.96
2022-08-30T01:08:46.136Z,12.94
2022-08-30T01:11:16.712Z,12.91
2022-08-30T01:13:43.983Z,12.89
2022-08-30T01:16:10.778Z,12.83
2022-08-30T01:18:39.602Z,12.79
2022-08-30T01:21:34.245Z,12.78
2022-08-30T01:24:02.160Z,12.75
2022-08-30T01:26:30.395Z,12.74
2022-08-30T01:29:02.239Z,12.69
2022-08-30T01:31:29.754Z,12.67
2022-08-30T01:33:56.460Z,12.70
2022-08-30T01:36:24.521Z,12.74
2022-08-30T01:38:54.759Z,12.74
2022-08-30T01:41:25.317Z,12.74
2022-08-30T01:43:55.087Z,12.77
2022-08-30T01:46:24.916Z,12.74
2022-08-30T01:48:56.186Z,12.70
2022-08-30T01:51:26.175Z,12.71
2022-08-30T01:53:53.094Z,12.71
2022-08-30T01:56:20.239Z,12.62
2022-08-30T01:58:47.700Z,12.59
2022-08-30T02:01:16.904Z,12.59
2022-08-30T02:03:44.752Z,12.61
2022-08-30T02:06:14.883Z,12.66
2022-08-30T02:08:42.305Z,12.71
2022-08-30T02:11:09.699Z,12.78
2022-08-30T02:13:37.969Z,12.84
2022-08-30T02:16:09.602Z,12.85
2022-08-30T02:18:39.249Z,12.90
2022-08-30T02:21:07.263Z,12.94
2022-08-30T02:23:34.374Z,12.98
2022-08-30T02:26:01.432Z,13.05
2022-08-30T02:28:28.206Z,13.10
2022-08-30T02:30:55.017Z,13.12
2022-08-30T02:33:21.836Z,13.21
2022-08-30T02:35:48.336Z,13.21
2022-08-30T02:38:15.211Z,13.20
2022-08-30T02:40:46.550Z,13.23
2022-08-30T02:43:13.301Z,13.24
2022-08-30T02:45:39.972Z,13.20
2022-08-30T02:48:06.702Z,13.22
2022-08-30T02:50:33.418Z,13.25
2022-08-30T02:52:59.981Z,13.26
2022-08-30T02:55:26.961Z,13.28
2022-08-30T02:57:53.662Z,13.27
2022-08-30T03:00:21.318Z,13.28
2022-08-30T03:02:48.079Z,13.23
2022-08-30T03:05:16.294Z,13.21
2022-08-30T03:07:43.875Z,13.23
2022-08-30T03:10:14.373Z,13.25
2022-08-30T03:12:41.713Z,13.26
2022-08-30T03:15:10.115Z,13.26
2022-08-30T03:17:36.892Z,13.27
2022-08-30T03:20:04.520Z,13.27
2022-08-30T03:22:31.219Z,13.29
2022-08-30T03:24:59.661Z,13.33
2022-08-30T03:27:26.972Z,13.35
2022-08-30T03:29:53.747Z,13.39
2022-08-30T03:32:21.477Z,13.42
2022-08-30T03:34:48.196Z,13.42
2022-08-30T03:37:14.746Z,13.41
2022-08-30T03:39:41.343Z,13.41
2022-08-30T03:42:11.485Z,13.42
2022-08-30T03:44:38.622Z,13.43
2022-08-30T03:47:05.591Z,13.46
2022-08-30T03:49:32.091Z,13.45
2022-08-30T03:51:58.801Z,13.45
2022-08-30T03:54:25.596Z,13.44
2022-08-30T03:56:52.211Z,13.42
2022-08-30T03:59:18.736Z,13.41
2022-08-30T04:01:45.963Z,13.41
2022-08-30T04:04:14.520Z,13.36
2022-08-30T04:06:42.854Z,13.38
2022-08-30T04:09:09.555Z,13.36
2022-08-30T04:11:36.165Z,13.39
2022-08-30T04:14:02.769Z,13.41
2022-08-30T04:16:29.603Z,13.43
2022-08-30T04:18:56.285Z,13.46
2022-08-30T04:21:23.192Z,13.51
2022-08-30T04:23:49.871Z,13.55
2022-08-30T04:26:16.550Z,13.63
2022-08-30T04:28:43.219Z,13.67
2022-08-30T04:31:16.875Z,13.76
2022-08-30T04:33:44.468Z,13.98
2022-08-30T04:36:13.840Z,14.42
2022-08-30T04:38:44.258Z,15.01
2022-08-30T04:41:16.548Z,15.28
2022-08-30T04:43:52.022Z,15.38
2022-08-30T04:46:19.364Z,15.45
2022-08-30T04:48:46.760Z,15.44
2022-08-30T04:51:16.298Z,15.37
2022-08-30T04:53:43.709Z,15.33
2022-08-30T04:56:16.508Z,15.26
2022-08-30T04:58:47.577Z,15.17
2022-08-30T05:01:23.691Z,15.14
2022-08-30T05:03:51.537Z,15.17
2022-08-30T05:06:19.049Z,15.13
2022-08-30T05:08:45.926Z,15.14
2022-08-30T05:11:12.973Z,15.14
2022-08-30T05:13:39.640Z,15.23
2022-08-30T05:16:07.912Z,15.32
2022-08-30T05:18:36.235Z,15.44
2022-08-30T05:21:11.936Z,15.50
2022-08-30T05:23:38.949Z,15.69
2022-08-30T05:26:08.419Z,16.09
2022-08-30T05:28:35.894Z,16.43
2022-08-30T05:31:03.318Z,16.59
2022-08-30T05:33:30.242Z,16.58
2022-08-30T05:35:56.815Z,16.67
2022-08-30T05:38:23.309Z,16.67
2022-08-30T05:40:50.281Z,16.63
2022-08-30T05:43:16.861Z,16.54
2022-08-30T05:45:43.429Z,16.46
2022-08-30T05:48:09.914Z,16.40
2022-08-30T05:50:40.083Z,16.33
2022-08-30T05:53:06.781Z,16.41
2022-08-30T05:55:33.359Z,16.56
2022-08-30T05:58:00.859Z,16.68
2022-08-30T06:00:30.444Z,16.56
2022-08-30T06:02:57.265Z,16.58
2022-08-30T06:05:24.061Z,16.53
2022-08-30T06:07:51.001Z,16.58
2022-08-30T06:10:17.599Z,16.61
2022-08-30T06:12:44.443Z,16.51
2022-08-30T06:15:11.615Z,16.53
2022-08-30T06:17:40.490Z,16.67
2022-08-30T06:20:09.521Z,16.84
2022-08-30T06:22:36.250Z,16.93
2022-08-30T06:25:03.687Z,16.99
2022-08-30T06:27:31.222Z,17.06
2022-08-30T06:29:57.746Z,17.16
2022-08-30T06:32:24.568Z,17.34
2022-08-30T06:34:51.130Z,17.62
2022-08-30T06:37:29.094Z,17.86
2022-08-30T06:39:57.913Z,17.83
2022-08-30T06:42:30.590Z,18.08
2022-08-30T06:44:58.183Z,18.37
2022-08-30T06:47:24.787Z,18.58
2022-08-30T06:49:51.529Z,18.85
2022-08-30T06:52:18.050Z,19.00
2022-08-30T06:54:45.879Z,18.94
2022-08-30T06:57:12.897Z,18.89
2022-08-30T06:59:39.912Z,18.73
2022-08-30T07:02:08.122Z,18.61
2022-08-30T07:04:36.621Z,18.78
2022-08-30T07:07:04.342Z,18.98
2022-08-30T07:12:04.070Z,18.88
2022-08-30T07:14:30.855Z,19.23
2022-08-30T07:16:57.411Z,19.36
2022-08-30T07:19:24.006Z,19.52
2022-08-30T07:21:50.814Z,19.82
2022-08-30T07:24:18.435Z,19.34
2022-08-30T07:26:49.944Z,19.27
2022-08-30T07:29:18.572Z,19.48
2022-08-30T07:31:46.125Z,19.63
2022-08-30T07:34:12.740Z,19.86
2022-08-30T07:36:40.177Z,19.83
2022-08-30T07:39:08.059Z,20.30
2022-08-30T07:41:39.180Z,21.11
2022-08-30T07:44:08.630Z,22.21
2022-08-30T07:46:38.709Z,22.53
2022-08-30T07:49:11.226Z,22.42
2022-08-30T07:51:39.657Z,22.85
2022-08-30T07:54:07.091Z,23.53
2022-08-30T07:56:33.800Z,23.03
2022-08-30T07:59:01.651Z,23.06
2022-08-30T08:01:28.335Z,23.43
2022-08-30T08:03:54.961Z,23.38
2022-08-30T08:06:23.513Z,23.33
2022-08-30T08:08:54.381Z,22.11
2022-08-30T08:11:26.824Z,22.68
2022-08-30T08:13:56.027Z,22.85
2022-08-30T08:16:24.790Z,21.83
2022-08-30T08:18:52.805Z,22.38
2022-08-30T08:21:21.573Z,22.74
2022-08-30T08:23:48.870Z,22.74
2022-08-30T08:26:17.051Z,21.72
2022-08-30T08:28:45.231Z,21.96
2022-08-30T08:31:27.327Z,22.48
2022-08-30T08:36:27.342Z,22.49
2022-08-30T08:38:53.893Z,22.04
2022-08-30T08:41:37.934Z,22.82
2022-08-30T08:44:13.393Z,24.70
2022-08-30T08:47:00.221Z,24.33
2022-08-30T08:49:26.636Z,24.04
2022-08-30T08:52:13.941Z,24.11
2022-08-30T08:54:51.452Z,23.59
2022-08-30T08:57:21.392Z,22.92
2022-08-30T08:59:54.381Z,22.91
2022-08-30T09:02:30.195Z,23.77
2022-08-30T09:05:00.771Z,24.19
2022-08-30T09:07:37.233Z,24.70
2022-08-30T09:10:04.759Z,25.32
2022-08-30T09:12:31.321Z,25.23
2022-08-30T09:15:07.223Z,25.80
2022-08-30T09:17:58.785Z,25.49
2022-08-30T09:20:29.288Z,26.98
2022-08-30T09:22:56.319Z,27.14
2022-08-30T09:25:27.333Z,26.49
2022-08-30T09:27:56.299Z,26.66
2022-08-30T09:30:28.903Z,25.52
2022-08-30T09:33:03.520Z,25.82
2022-08-30T09:35:36.795Z,24.31
2022-08-30T09:38:22.553Z,23.32
2022-08-30T09:40:54.834Z,22.76
2022-08-30T09:43:33.075Z,23.65
2022-08-30T09:46:02.839Z,25.11
2022-08-30T09:48:41.218Z,26.13
2022-08-30T09:51:10.436Z,25.81
2022-08-30T09:54:20.006Z,25.29
2022-08-30T09:56:52.457Z,24.58
2022-08-30T09:59:35.762Z,23.89
2022-08-30T10:02:21.005Z,21.98
2022-08-30T10:05:09.802Z,21.01
2022-08-30T10:08:03.177Z,21.85
2022-08-30T10:10:54.160Z,22.43
2022-08-30T10:13:56.373Z,23.03
2022-08-30T10:16:31.754Z,23.27
2022-08-30T10:19:11.106Z,23.85
2022-08-30T10:21:47.169Z,24.13
2022-08-30T10:24:21.238Z,24.92
2022-08-30T10:27:12.031Z,25.36
2022-08-30T10:29:51.383Z,25.51
2022-08-30T10:32:32.594Z,25.59
2022-08-30T10:35:08.342Z,25.13
2022-08-30T10:37:52.370Z,25.45
2022-08-30T10:40:45.315Z,25.51
2022-08-30T10:43:22.415Z,25.83
2022-08-30T10:45:53.458Z,25.70
2022-08-30T10:48:35.516Z,25.27
2022-08-30T10:51:09.615Z,25.77
2022-08-30T10:53:46.630Z,24.71
2022-08-30T10:56:20.597Z,22.92
2022-08-30T10:58:48.161Z,22.63
2022-08-30T11:01:46.626Z,22.34
2022-08-30T11:04:40.803Z,21.63
2022-08-30T11:07:46.200Z,21.74
2022-08-30T11:10:50.099Z,22.50
2022-08-30T11:13:29.887Z,22.10
2022-08-30T11:16:04.310Z,22.64
2022-08-30T11:18:41.601Z,23.20
2022-08-30T11:21:33.708Z,23.79
2022-08-30T11:24:11.632Z,25.17
2022-08-30T11:26:48.398Z,26.23
2022-08-30T11:29:27.364Z,26.38
2022-08-30T11:31:58.771Z,26.44
2022-08-30T11:34:47.286Z,26.23
2022-08-30T11:37:13.959Z,24.78
2022-08-30T11:39:46.673Z,24.47
2022-08-30T11:42:35.297Z,23.67
2022-08-30T11:45:36.216Z,23.59
2022-08-30T11:48:09.477Z,23.80
2022-08-30T11:51:00.264Z,23.62
2022-08-30T11:53:52.335Z,23.78
2022-08-30T11:56:49.644Z,25.34
2022-08-30T11:59:36.074Z,25.72
2022-08-30T12:02:02.922Z,25.15
2022-08-30T12:04:47.151Z,25.57
2022-08-30T12:07:52.245Z,25.73
2022-08-30T12:10:35.990Z,25.36
2022-08-30T12:13:03.039Z,25.10
2022-08-30T12:15:58.740Z,24.94
2022-08-30T12:18:39.473Z,25.04
2022-08-30T12:21:19.774Z,24.61
2022-08-30T12:24:21.017Z,24.47
2022-08-30T12:26:49.831Z,24.40
2022-08-30T12:29:26.561Z,24.47
2022-08-30T12:31:56.186Z,24.37
2022-08-30T12:34:49.519Z,24.82
2022-08-30T12:37:23.868Z,24.72
2022-08-30T12:40:06.392Z,24.36
2022-08-30T12:42:36.780Z,24.51
2022-08-30T12:45:11.447Z,24.61
2022-08-30T12:47:48.176Z,24.43
2022-08-30T12:50:20.845Z,23.83
2022-08-30T12:52:56.520Z,23.86
2022-08-30T12:55:28.494Z,24.06
2022-08-30T12:58:00.677Z,23.80
2022-08-30T13:00:33.986Z,23.90
2022-08-30T13:03:34.389Z,24.18
2022-08-30T13:06:02.873Z,24.33
2022-08-30T13:08:50.645Z,24.49
2022-08-30T13:11:21.047Z,24.10
2022-08-30T13:14:29.837Z,24.24
2022-08-30T13:17:20.495Z,24.45
2022-08-30T13:20:05.632Z,24.73
2022-08-30T13:22:40.587Z,24.77
2022-08-30T13:25:10.022Z,24.78
2022-08-30T13:27:38.100Z,24.84
2022-08-30T13:30:13.393Z,25.04
2022-08-30T13:32:40.423Z,25.04
2022-08-30T13:35:08.860Z,24.87
2022-08-30T13:37:52.165Z,25.15
2022-08-30T13:40:20.710Z,24.35
2022-08-30T13:42:47.672Z,24.13
2022-08-30T13:48:02.992Z,24.34
2022-08-30T13:50:30.858Z,24.37
2022-08-30T13:52:57.770Z,24.45
2022-08-30T13:55:24.662Z,24.63
2022-08-30T13:57:55.542Z,24.76
2022-08-30T14:00:27.302Z,24.87
2022-08-30T14:02:57.461Z,25.01
2022-08-30T14:11:12.673Z,24.35
2022-08-30T14:14:14.667Z,24.32
2022-08-30T14:16:28.740Z,23.64
2022-08-30T14:18:56.136Z,23.92
2022-08-30T14:21:24.404Z,24.36
2022-08-30T14:23:52.289Z,24.49
2022-08-30T14:26:23.415Z,24.74
2022-08-30T14:28:51.816Z,24.79
2022-08-30T14:31:19.902Z,25.18
2022-08-30T14:33:46.919Z,24.97
2022-08-30T14:36:15.387Z,24.86
2022-08-30T14:38:44.381Z,25.06
2022-08-30T14:41:11.579Z,24.93
2022-08-30T14:43:40.592Z,24.83
2022-08-30T14:46:08.937Z,24.97
2022-08-30T14:48:38.031Z,25.19
2022-08-30T14:51:12.467Z,25.15
2022-08-30T14:53:39.174Z,25.22
2022-08-30T14:56:12.276Z,25.31
2022-08-30T14:58:38.793Z,25.31
2022-08-30T15:01:10.018Z,25.13
2022-08-30T15:03:40.826Z,24.97
2022-08-30T15:06:10.786Z,24.14
2022-08-30T15:08:39.402Z,23.25
2022-08-30T15:11:11.866Z,22.78
2022-08-30T15:13:40.431Z,22.79
2022-08-30T15:16:14.727Z,22.42
2022-08-30T15:18:42.417Z,22.08
2022-08-30T15:21:10.316Z,22.25
2022-08-30T15:23:37.863Z,21.96
2022-08-30T15:26:06.838Z,21.94
2022-08-30T15:28:36.390Z,21.90
2022-08-30T15:31:06.293Z,21.84
2022-08-30T15:33:35.831Z,21.81
2022-08-30T15:36:04.877Z,21.61
2022-08-30T15:38:32.065Z,21.71
2022-08-30T15:41:02.199Z,21.70
2022-08-30T15:43:28.987Z,21.71
2022-08-30T15:45:56.594Z,21.78
2022-08-30T15:48:24.035Z,21.75
2022-08-30T15:50:58.454Z,21.67
2022-08-30T15:53:25.025Z,21.59
2022-08-30T15:55:51.769Z,21.51
2022-08-30T15:58:19.039Z,21.30
2022-08-30T16:00:45.945Z,21.38
2022-08-30T16:03:12.883Z,21.28
2022-08-30T16:05:39.476Z,21.20
2022-08-30T16:08:06.135Z,21.15
2022-08-30T16:10:33.148Z,21.23
2022-08-30T16:13:01.794Z,21.16
2022-08-30T16:15:29.639Z,21.25
2022-08-30T16:17:56.522Z,21.22
2022-08-30T16:20:24.757Z,21.31
2022-08-30T16:22:51.952Z,21.32
2022-08-30T16:25:18.651Z,21.22
2022-08-30T16:27:45.387Z,21.18
2022-08-30T16:30:13.279Z,21.07
2022-08-30T16:32:40.112Z,21.01
2022-08-30T16:35:07.958Z,20.96
2022-08-30T16:37:34.549Z,20.83
2022-08-30T16:40:01.567Z,20.74
2022-08-30T16:42:28.413Z,20.70
2022-08-30T16:44:55.663Z,20.64
2022-08-30T16:47:22.303Z,20.54
2022-08-30T16:49:49.492Z,20.51
2022-08-30T16:52:16.922Z,20.32
2022-08-30T16:54:45.064Z,20.11
2022-08-30T16:57:12.334Z,20.08
2022-08-30T16:59:39.050Z,20.07
2022-08-30T17:02:05.902Z,20.01
2022-08-30T17:04:34.135Z,19.95
2022-08-30T17:07:00.760Z,19.86
2022-08-30T17:09:27.776Z,19.77
2022-08-30T17:11:54.319Z,19.68
2022-08-30T17:14:27.597Z,19.58
2022-08-30T17:16:57.954Z,19.52
2022-08-30T17:19:26.960Z,19.42
2022-08-30T17:21:56.331Z,19.41
2022-08-30T17:24:26.741Z,19.37
2022-08-30T17:26:54.503Z,19.33
2022-08-30T17:29:21.769Z,19.27
2022-08-30T17:31:51.317Z,19.17
2022-08-30T17:34:21.241Z,19.09
2022-08-30T17:36:49.748Z,19.00
2022-08-30T17:39:16.619Z,18.94
2022-08-30T17:41:45.566Z,18.89
2022-08-30T17:44:26.091Z,18.80
2022-08-30T17:46:53.466Z,18.74
2022-08-30T17:49:21.277Z,18.66
2022-08-30T17:51:52.926Z,18.60
2022-08-30T17:54:24.399Z,18.55
2022-08-30T17:56:53.172Z,18.48
2022-08-30T17:59:25.291Z,18.44
2022-08-30T18:01:53.846Z,18.39
2022-08-30T18:04:21.408Z,18.31
2022-08-30T18:06:51.543Z,18.28
2022-08-30T18:09:18.294Z,18.25
2022-08-30T18:11:44.812Z,18.16
2022-08-30T18:14:12.757Z,18.05
2022-08-30T18:16:53.357Z,18.05
2022-08-30T18:19:24.670Z,18.02
2022-08-30T18:21:52.231Z,17.97
2022-08-30T18:24:21.030Z,17.86
2022-08-30T18:26:47.690Z,17.77
2022-08-30T18:29:14.829Z,17.73
2022-08-30T18:31:53.110Z,17.61
2022-08-30T18:34:19.697Z,17.53
2022-08-30T18:36:48.424Z,17.44
2022-08-30T18:39:15.147Z,17.36
2022-08-30T18:41:42.953Z,17.32
2022-08-30T18:44:26.722Z,17.25
2022-08-30T18:46:56.222Z,17.16
2022-08-30T18:49:24.648Z,17.07
2022-08-30T18:51:51.221Z,17.02
2022-08-30T18:54:18.858Z,16.94
2022-08-30T18:56:45.825Z,16.91
2022-08-30T18:59:12.694Z,16.87
2022-08-30T19:01:40.623Z,16.81
2022-08-30T19:04:07.793Z,16.75
2022-08-30T19:06:34.742Z,16.71
2022-08-30T19:09:08.891Z,16.66
2022-08-30T19:11:36.166Z,16.60
2022-08-30T19:14:05.406Z,16.56
2022-08-30T19:16:34.244Z,16.50
2022-08-30T19:19:03.134Z,16.45
2022-08-30T19:21:29.670Z,16.36
2022-08-30T19:23:56.221Z,16.32
2022-08-30T19:26:22.937Z,16.24
2022-08-30T19:28:49.560Z,16.19
2022-08-30T19:31:16.403Z,16.13
2022-08-30T19:33:43.776Z,16.09
2022-08-30T19:36:10.366Z,16.05
2022-08-30T19:38:37.059Z,16.02
2022-08-30T19:41:04.603Z,15.96
2022-08-30T19:43:31.629Z,15.92
2022-08-30T19:45:59.632Z,15.90
2022-08-30T19:48:32.757Z,15.83
2022-08-30T19:51:06.579Z,15.77
2022-08-30T19:53:34.205Z,15.71
2022-08-30T19:56:00.750Z,15.69
2022-08-30T19:58:30.218Z,15.65
2022-08-30T20:01:08.774Z,15.64
2022-08-30T20:03:39.929Z,15.62
2022-08-30T20:06:07.399Z,15.59
2022-08-30T20:08:34.013Z,15.59
2022-08-30T20:11:00.505Z,15.56
2022-08-30T20:13:28.330Z,15.50
2022-08-30T20:15:58.748Z,15.43
2022-08-30T20:18:29.089Z,15.38
2022-08-30T20:20:56.306Z,15.30
2022-08-30T20:23:26.086Z,15.24
2022-08-30T20:25:55.695Z,15.21
2022-08-30T20:28:24.943Z,15.11
2022-08-30T20:30:52.471Z,15.06
2022-08-30T20:33:20.607Z,15.05
2022-08-30T20:35:49.655Z,15.04
2022-08-30T20:38:21.511Z,15.00
2022-08-30T20:40:50.808Z,15.02
2022-08-30T20:43:22.848Z,14.99
2022-08-30T20:45:49.644Z,14.95
2022-08-30T20:48:17.474Z,14.94
2022-08-30T20:50:44.402Z,14.97
2022-08-30T20:53:12.170Z,14.94
2022-08-30T20:55:47.189Z,14.96
2022-08-30T20:58:14.434Z,14.96
2022-08-30T21:00:45.996Z,14.94
2022-08-30T21:03:25.831Z,14.93
2022-08-30T21:05:54.706Z,14.90
2022-08-30T21:08:21.233Z,14.86
2022-08-30T21:10:48.040Z,14.82
2022-08-30T21:13:14.663Z,14.81
2022-08-30T21:15:45.793Z,14.76
2022-08-30T21:18:15.780Z,14.69
2022-08-30T21:20:42.849Z,14.67
2022-08-30T21:23:09.935Z,14.62
2022-08-30T21:25:43.835Z,14.61
2022-08-30T21:28:10.873Z,14.55
2022-08-30T21:30:37.925Z,14.51
2022-08-30T21:33:06.616Z,14.48
2022-08-30T21:35:55.248Z,14.46
2022-08-30T21:38:22.247Z,14.45
2022-08-30T21:40:49.195Z,14.42
2022-08-30T21:43:16.164Z,14.41
2022-08-30T21:45:44.884Z,14.42
2022-08-30T21:48:13.460Z,14.40
2022-08-30T21:50:42.193Z,14.40
2022-08-30T21:53:09.298Z,14.40
2022-08-30T21:55:35.787Z,14.37
2022-08-30T21:58:02.719Z,14.39
2022-08-30T22:00:31.545Z,14.36
2022-08-30T22:02:58.153Z,14.40
2022-08-30T22:05:25.184Z,14.42
2022-08-30T22:07:51.738Z,14.49
2022-08-30T22:10:19.893Z,14.49
2022-08-30T22:12:46.737Z,14.50
2022-08-30T22:15:14.531Z,14.49
2022-08-30T22:17:42.248Z,14.47
2022-08-30T22:20:09.285Z,14.48
2022-08-30T22:22:38.549Z,14.46
2022-08-30T22:25:06.988Z,14.44
2022-08-30T22:27:34.655Z,14.43
2022-08-30T22:30:01.236Z,14.44
2022-08-30T22:32:28.629Z,14.43
2022-08-30T22:34:55.142Z,14.47
2022-08-30T22:37:21.709Z,14.50
2022-08-30T22:39:54.393Z,14.51
2022-08-30T22:42:20.917Z,14.51
2022-08-30T22:44:48.397Z,14.51
2022-08-30T22:47:15.072Z,14.57
2022-08-30T22:49:41.598Z,14.60
2022-08-30T22:52:09.646Z,14.67
2022-08-30T22:54:37.840Z,14.67
2022-08-30T22:57:04.580Z,14.67
2022-08-30T22:59:32.366Z,14.68
2022-08-30T23:01:59.636Z,14.70
2022-08-30T23:04:26.293Z,14.76
2022-08-30T23:06:54.158Z,14.80
2022-08-30T23:09:20.662Z,14.79
2022-08-30T23:11:47.302Z,14.82
2022-08-30T23:14:14.074Z,14.83
2022-08-30T23:16:40.676Z,14.83
2022-08-30T23:19:07.240Z,14.83
2022-08-30T23:21:33.859Z,14.83
2022-08-30T23:24:18.926Z,14.85
2022-08-30T23:27:04.994Z,14.88
2022-08-30T23:29:50.630Z,14.93
2022-08-30T23:32:36.122Z,14.92
2022-08-30T23:35:26.803Z,14.92
2022-08-30T23:38:14.875Z,14.93
2022-08-30T23:40:59.699Z,15.00
2022-08-30T23:43:44.822Z,14.98
2022-08-30T23:46:29.884Z,14.95
2022-08-30T23:49:14.891Z,14.93
2022-08-30T23:52:00.116Z,14.92
2022-08-30T23:54:45.100Z,14.92
2022-08-30T23:57:30.312Z,14.91
